sensor_id;sensor_type;location;lat;lon;timestamp;temperature;humidity
80540;DHT22;69869;48.036;15.780;2023-05-10T00:01:21;18.10;47.80
80540;DHT22;69869;48.036;15.780;2023-05-10T00:03:47;18.10;47.60
80540;DHT22;69869;48.036;15.780;2023-05-10T00:06:13;18.10;47.90
80540;DHT22;69869;48.036;15.780;2023-05-10T00:08:38;18.10;47.60
80540;DHT22;69869;48.036;15.780;2023-05-10T00:11:04;18.10;47.70
80540;DHT22;69869;48.036;15.780;2023-05-10T00:13:31;18.10;47.60
80540;DHT22;69869;48.036;15.780;2023-05-10T00:15:57;18.10;47.60
80540;DHT22;69869;48.036;15.780;2023-05-10T00:18:22;18.10;47.60
80540;DHT22;69869;48.036;15.780;2023-05-10T00:20:48;18.10;47.40
80540;DHT22;69869;48.036;15.780;2023-05-10T00:23:14;18.10;47.30
80540;DHT22;69869;48.036;15.780;2023-05-10T00:25:40;18.00;47.20
80540;DHT22;69869;48.036;15.780;2023-05-10T00:28:05;18.00;47.20
80540;DHT22;69869;48.036;15.780;2023-05-10T00:30:31;18.00;47.50
80540;DHT22;69869;48.036;15.780;2023-05-10T00:32:57;18.10;47.60
80540;DHT22;69869;48.036;15.780;2023-05-10T00:35:22;18.00;47.20
80540;DHT22;69869;48.036;15.780;2023-05-10T00:37:48;18.10;47.30
80540;DHT22;69869;48.036;15.780;2023-05-10T00:40:14;18.10;47.70
80540;DHT22;69869;48.036;15.780;2023-05-10T00:42:40;18.10;48.30
80540;DHT22;69869;48.036;15.780;2023-05-10T00:45:06;18.10;47.90
80540;DHT22;69869;48.036;15.780;2023-05-10T00:47:32;18.10;47.50
80540;DHT22;69869;48.036;15.780;2023-05-10T00:49:59;18.10;48.00
80540;DHT22;69869;48.036;15.780;2023-05-10T00:52:27;18.10;47.50
80540;DHT22;69869;48.036;15.780;2023-05-10T00:54:53;18.20;47.80
80540;DHT22;69869;48.036;15.780;2023-05-10T00:57:19;18.20;48.20
80540;DHT22;69869;48.036;15.780;2023-05-10T00:59:44;18.20;47.80
80540;DHT22;69869;48.036;15.780;2023-05-10T01:02:11;18.20;48.10
80540;DHT22;69869;48.036;15.780;2023-05-10T01:04:37;18.20;48.70
80540;DHT22;69869;48.036;15.780;2023-05-10T01:07:03;18.20;47.20
80540;DHT22;69869;48.036;15.780;2023-05-10T01:09:29;18.10;47.40
80540;DHT22;69869;48.036;15.780;2023-05-10T01:11:55;18.10;47.80
80540;DHT22;69869;48.036;15.780;2023-05-10T01:14:21;18.10;48.50
80540;DHT22;69869;48.036;15.780;2023-05-10T01:16:49;18.20;48.60
80540;DHT22;69869;48.036;15.780;2023-05-10T01:19:25;18.10;47.50
80540;DHT22;69869;48.036;15.780;2023-05-10T01:33:19;18.00;46.70
80540;DHT22;69869;48.036;15.780;2023-05-10T01:35:54;18.00;47.80
80540;DHT22;69869;48.036;15.780;2023-05-10T01:38:58;18.10;48.20
80540;DHT22;69869;48.036;15.780;2023-05-10T01:41:55;18.10;47.40
80540;DHT22;69869;48.036;15.780;2023-05-10T01:44:31;18.00;47.00
80540;DHT22;69869;48.036;15.780;2023-05-10T01:47:08;18.00;46.90
80540;DHT22;69869;48.036;15.780;2023-05-10T01:49:43;18.00;47.70
80540;DHT22;69869;48.036;15.780;2023-05-10T01:52:14;18.00;46.70
80540;DHT22;69869;48.036;15.780;2023-05-10T01:54:44;17.90;46.60
80540;DHT22;69869;48.036;15.780;2023-05-10T01:57:14;17.90;46.50
80540;DHT22;69869;48.036;15.780;2023-05-10T01:59:43;17.90;46.90
80540;DHT22;69869;48.036;15.780;2023-05-10T02:02:12;18.00;46.80
80540;DHT22;69869;48.036;15.780;2023-05-10T02:04:39;17.90;46.70
80540;DHT22;69869;48.036;15.780;2023-05-10T02:07:07;17.90;46.60
80540;DHT22;69869;48.036;15.780;2023-05-10T02:09:34;17.90;46.60
80540;DHT22;69869;48.036;15.780;2023-05-10T02:12:02;17.90;46.70
80540;DHT22;69869;48.036;15.780;2023-05-10T02:14:35;17.90;46.90
80540;DHT22;69869;48.036;15.780;2023-05-10T02:17:03;17.90;46.80
80540;DHT22;69869;48.036;15.780;2023-05-10T02:19:30;17.90;46.80
80540;DHT22;69869;48.036;15.780;2023-05-10T02:21:57;17.90;46.70
80540;DHT22;69869;48.036;15.780;2023-05-10T02:24:24;17.90;46.60
80540;DHT22;69869;48.036;15.780;2023-05-10T02:26:51;17.90;46.80
80540;DHT22;69869;48.036;15.780;2023-05-10T02:29:19;17.90;46.80
80540;DHT22;69869;48.036;15.780;2023-05-10T02:31:45;17.90;46.90
80540;DHT22;69869;48.036;15.780;2023-05-10T02:34:12;17.90;46.80
80540;DHT22;69869;48.036;15.780;2023-05-10T02:36:39;17.90;46.90
80540;DHT22;69869;48.036;15.780;2023-05-10T02:39:06;17.90;46.90
80540;DHT22;69869;48.036;15.780;2023-05-10T02:41:35;17.90;47.00
80540;DHT22;69869;48.036;15.780;2023-05-10T02:44:02;17.90;46.90
80540;DHT22;69869;48.036;15.780;2023-05-10T02:46:29;17.90;46.90
80540;DHT22;69869;48.036;15.780;2023-05-10T02:48:55;17.80;46.80
80540;DHT22;69869;48.036;15.780;2023-05-10T02:51:21;17.80;46.60
80540;DHT22;69869;48.036;15.780;2023-05-10T02:53:50;17.80;46.70
80540;DHT22;69869;48.036;15.780;2023-05-10T02:56:28;17.80;46.70
80540;DHT22;69869;48.036;15.780;2023-05-10T02:58:56;17.80;46.90
80540;DHT22;69869;48.036;15.780;2023-05-10T03:01:21;17.80;46.80
80540;DHT22;69869;48.036;15.780;2023-05-10T03:03:47;17.90;46.70
80540;DHT22;69869;48.036;15.780;2023-05-10T03:06:13;17.80;46.90
80540;DHT22;69869;48.036;15.780;2023-05-10T03:08:39;17.80;46.70
80540;DHT22;69869;48.036;15.780;2023-05-10T03:11:23;17.90;47.50
80540;DHT22;69869;48.036;15.780;2023-05-10T03:14:13;17.90;48.40
80540;DHT22;69869;48.036;15.780;2023-05-10T03:16:47;17.90;46.70
80540;DHT22;69869;48.036;15.780;2023-05-10T03:19:22;17.90;47.10
80540;DHT22;69869;48.036;15.780;2023-05-10T03:21:52;17.90;46.90
80540;DHT22;69869;48.036;15.780;2023-05-10T03:24:21;17.90;46.90
80540;DHT22;69869;48.036;15.780;2023-05-10T03:26:48;17.90;47.00
80540;DHT22;69869;48.036;15.780;2023-05-10T03:29:15;17.90;46.70
80540;DHT22;69869;48.036;15.780;2023-05-10T03:31:42;17.80;46.70
80540;DHT22;69869;48.036;15.780;2023-05-10T03:34:07;17.90;46.60
80540;DHT22;69869;48.036;15.780;2023-05-10T03:36:33;17.80;46.60
80540;DHT22;69869;48.036;15.780;2023-05-10T03:38:59;17.80;46.60
80540;DHT22;69869;48.036;15.780;2023-05-10T03:41:24;17.80;46.50
80540;DHT22;69869;48.036;15.780;2023-05-10T03:43:51;17.80;46.60
80540;DHT22;69869;48.036;15.780;2023-05-10T03:46:16;17.80;46.30
80540;DHT22;69869;48.036;15.780;2023-05-10T03:48:42;17.80;46.50
80540;DHT22;69869;48.036;15.780;2023-05-10T03:51:08;17.80;47.00
80540;DHT22;69869;48.036;15.780;2023-05-10T03:53:34;17.70;46.30
80540;DHT22;69869;48.036;15.780;2023-05-10T03:55:59;17.80;46.80
80540;DHT22;69869;48.036;15.780;2023-05-10T03:58:25;17.70;46.30
80540;DHT22;69869;48.036;15.780;2023-05-10T04:00:51;17.80;46.30
80540;DHT22;69869;48.036;15.780;2023-05-10T04:03:17;17.70;46.30
80540;DHT22;69869;48.036;15.780;2023-05-10T04:05:43;17.70;46.30
80540;DHT22;69869;48.036;15.780;2023-05-10T04:08:09;17.70;46.40
80540;DHT22;69869;48.036;15.780;2023-05-10T04:10:34;17.70;46.40
80540;DHT22;69869;48.036;15.780;2023-05-10T04:13:00;17.70;46.50
80540;DHT22;69869;48.036;15.780;2023-05-10T04:15:26;17.70;46.90
80540;DHT22;69869;48.036;15.780;2023-05-10T04:17:51;17.60;47.00
80540;DHT22;69869;48.036;15.780;2023-05-10T04:20:17;17.60;46.30
80540;DHT22;69869;48.036;15.780;2023-05-10T04:22:43;17.70;47.00
80540;DHT22;69869;48.036;15.780;2023-05-10T04:25:09;17.80;47.50
80540;DHT22;69869;48.036;15.780;2023-05-10T04:27:34;17.80;47.00
80540;DHT22;69869;48.036;15.780;2023-05-10T04:30:00;17.90;48.10
80540;DHT22;69869;48.036;15.780;2023-05-10T04:32:26;17.90;48.40
80540;DHT22;69869;48.036;15.780;2023-05-10T04:34:52;17.90;49.10
80540;DHT22;69869;48.036;15.780;2023-05-10T04:37:18;18.00;49.50
80540;DHT22;69869;48.036;15.780;2023-05-10T04:39:44;18.00;50.20
80540;DHT22;69869;48.036;15.780;2023-05-10T04:42:10;17.90;49.50
80540;DHT22;69869;48.036;15.780;2023-05-10T04:44:36;17.90;51.00
80540;DHT22;69869;48.036;15.780;2023-05-10T04:47:02;18.00;50.50
80540;DHT22;69869;48.036;15.780;2023-05-10T04:49:29;17.90;49.60
80540;DHT22;69869;48.036;15.780;2023-05-10T04:51:55;17.90;50.00
80540;DHT22;69869;48.036;15.780;2023-05-10T04:54:21;17.90;49.50
80540;DHT22;69869;48.036;15.780;2023-05-10T04:56:47;17.80;49.30
80540;DHT22;69869;48.036;15.780;2023-05-10T04:59:12;17.80;49.30
80540;DHT22;69869;48.036;15.780;2023-05-10T05:01:38;17.80;49.50
80540;DHT22;69869;48.036;15.780;2023-05-10T05:04:04;17.80;49.40
80540;DHT22;69869;48.036;15.780;2023-05-10T05:06:30;17.80;49.50
80540;DHT22;69869;48.036;15.780;2023-05-10T05:08:56;17.80;49.40
80540;DHT22;69869;48.036;15.780;2023-05-10T05:11:21;17.80;49.60
80540;DHT22;69869;48.036;15.780;2023-05-10T05:13:47;17.80;49.60
80540;DHT22;69869;48.036;15.780;2023-05-10T05:16:13;17.80;49.60
80540;DHT22;69869;48.036;15.780;2023-05-10T05:18:38;17.80;49.60
80540;DHT22;69869;48.036;15.780;2023-05-10T05:21:16;17.80;49.60
80540;DHT22;69869;48.036;15.780;2023-05-10T05:23:42;17.80;49.70
80540;DHT22;69869;48.036;15.780;2023-05-10T05:26:08;17.70;49.50
80540;DHT22;69869;48.036;15.780;2023-05-10T05:28:34;17.80;50.20
80540;DHT22;69869;48.036;15.780;2023-05-10T05:31:03;17.80;49.70
80540;DHT22;69869;48.036;15.780;2023-05-10T05:33:28;17.80;49.70
80540;DHT22;69869;48.036;15.780;2023-05-10T05:35:54;17.80;49.80
80540;DHT22;69869;48.036;15.780;2023-05-10T05:38:19;17.80;49.80
80540;DHT22;69869;48.036;15.780;2023-05-10T05:40:45;17.80;49.80
80540;DHT22;69869;48.036;15.780;2023-05-10T05:43:11;17.80;49.80
80540;DHT22;69869;48.036;15.780;2023-05-10T05:45:37;17.80;49.80
80540;DHT22;69869;48.036;15.780;2023-05-10T05:48:02;17.80;49.80
80540;DHT22;69869;48.036;15.780;2023-05-10T05:50:28;17.70;49.80
80540;DHT22;69869;48.036;15.780;2023-05-10T05:52:54;17.70;49.80
80540;DHT22;69869;48.036;15.780;2023-05-10T05:55:19;17.70;49.90
80540;DHT22;69869;48.036;15.780;2023-05-10T05:57:46;17.80;50.00
80540;DHT22;69869;48.036;15.780;2023-05-10T06:00:12;17.80;50.00
80540;DHT22;69869;48.036;15.780;2023-05-10T06:02:38;17.80;50.00
80540;DHT22;69869;48.036;15.780;2023-05-10T06:05:04;17.80;50.00
80540;DHT22;69869;48.036;15.780;2023-05-10T06:07:30;17.70;50.00
80540;DHT22;69869;48.036;15.780;2023-05-10T06:09:55;17.80;50.10
80540;DHT22;69869;48.036;15.780;2023-05-10T06:12:21;17.80;50.10
80540;DHT22;69869;48.036;15.780;2023-05-10T06:14:46;17.80;50.10
80540;DHT22;69869;48.036;15.780;2023-05-10T06:17:12;17.80;50.20
80540;DHT22;69869;48.036;15.780;2023-05-10T06:19:38;17.80;50.20
80540;DHT22;69869;48.036;15.780;2023-05-10T06:22:03;17.80;50.20
80540;DHT22;69869;48.036;15.780;2023-05-10T06:24:29;17.80;50.20
80540;DHT22;69869;48.036;15.780;2023-05-10T06:26:55;17.80;50.20
80540;DHT22;69869;48.036;15.780;2023-05-10T06:29:20;17.80;50.30
80540;DHT22;69869;48.036;15.780;2023-05-10T06:31:46;17.80;50.30
80540;DHT22;69869;48.036;15.780;2023-05-10T06:34:12;17.80;50.30
80540;DHT22;69869;48.036;15.780;2023-05-10T06:36:38;17.80;50.30
80540;DHT22;69869;48.036;15.780;2023-05-10T06:39:04;17.80;50.30
80540;DHT22;69869;48.036;15.780;2023-05-10T06:41:31;17.80;50.40
80540;DHT22;69869;48.036;15.780;2023-05-10T06:43:56;17.80;50.40
80540;DHT22;69869;48.036;15.780;2023-05-10T06:46:22;17.80;50.40
80540;DHT22;69869;48.036;15.780;2023-05-10T06:48:47;17.80;50.50
80540;DHT22;69869;48.036;15.780;2023-05-10T06:51:13;17.80;50.50
80540;DHT22;69869;48.036;15.780;2023-05-10T06:53:38;17.80;50.40
80540;DHT22;69869;48.036;15.780;2023-05-10T06:56:04;17.80;50.50
80540;DHT22;69869;48.036;15.780;2023-05-10T06:58:30;17.80;50.50
80540;DHT22;69869;48.036;15.780;2023-05-10T07:01:02;17.80;50.50
80540;DHT22;69869;48.036;15.780;2023-05-10T07:03:28;17.80;50.50
80540;DHT22;69869;48.036;15.780;2023-05-10T07:05:54;17.80;50.50
80540;DHT22;69869;48.036;15.780;2023-05-10T07:08:25;17.80;50.60
80540;DHT22;69869;48.036;15.780;2023-05-10T07:10:50;17.80;50.60
80540;DHT22;69869;48.036;15.780;2023-05-10T07:13:16;17.80;50.60
80540;DHT22;69869;48.036;15.780;2023-05-10T07:15:41;17.80;50.60
80540;DHT22;69869;48.036;15.780;2023-05-10T07:18:07;17.80;50.60
80540;DHT22;69869;48.036;15.780;2023-05-10T07:20:33;17.80;50.60
80540;DHT22;69869;48.036;15.780;2023-05-10T07:22:58;17.80;50.70
80540;DHT22;69869;48.036;15.780;2023-05-10T07:25:24;17.80;50.70
80540;DHT22;69869;48.036;15.780;2023-05-10T07:27:50;17.80;50.70
80540;DHT22;69869;48.036;15.780;2023-05-10T07:30:16;17.80;50.80
80540;DHT22;69869;48.036;15.780;2023-05-10T07:32:41;17.80;50.80
80540;DHT22;69869;48.036;15.780;2023-05-10T07:35:08;17.80;50.80
80540;DHT22;69869;48.036;15.780;2023-05-10T07:37:33;17.80;50.80
80540;DHT22;69869;48.036;15.780;2023-05-10T07:39:59;17.80;50.90
80540;DHT22;69869;48.036;15.780;2023-05-10T07:42:25;17.80;50.90
80540;DHT22;69869;48.036;15.780;2023-05-10T07:44:50;17.80;50.90
80540;DHT22;69869;48.036;15.780;2023-05-10T07:47:16;17.80;50.90
80540;DHT22;69869;48.036;15.780;2023-05-10T07:49:42;17.80;50.90
80540;DHT22;69869;48.036;15.780;2023-05-10T07:52:08;17.80;50.90
80540;DHT22;69869;48.036;15.780;2023-05-10T07:54:34;17.80;50.90
80540;DHT22;69869;48.036;15.780;2023-05-10T07:57:00;17.80;50.90
80540;DHT22;69869;48.036;15.780;2023-05-10T07:59:26;17.80;50.90
80540;DHT22;69869;48.036;15.780;2023-05-10T08:01:51;17.80;50.90
80540;DHT22;69869;48.036;15.780;2023-05-10T08:04:17;17.80;50.90
80540;DHT22;69869;48.036;15.780;2023-05-10T08:06:42;17.80;50.90
80540;DHT22;69869;48.036;15.780;2023-05-10T08:09:08;17.80;50.90
80540;DHT22;69869;48.036;15.780;2023-05-10T08:11:34;17.80;50.90
80540;DHT22;69869;48.036;15.780;2023-05-10T08:14:00;17.80;50.90
80540;DHT22;69869;48.036;15.780;2023-05-10T08:16:26;17.80;50.90
80540;DHT22;69869;48.036;15.780;2023-05-10T08:18:52;17.80;50.90
80540;DHT22;69869;48.036;15.780;2023-05-10T08:21:17;17.80;50.90
80540;DHT22;69869;48.036;15.780;2023-05-10T08:23:43;17.80;50.90
80540;DHT22;69869;48.036;15.780;2023-05-10T08:26:09;17.80;50.90
80540;DHT22;69869;48.036;15.780;2023-05-10T08:28:34;17.80;50.90
80540;DHT22;69869;48.036;15.780;2023-05-10T08:31:00;17.80;50.90
80540;DHT22;69869;48.036;15.780;2023-05-10T08:33:26;17.80;50.90
80540;DHT22;69869;48.036;15.780;2023-05-10T08:35:51;17.80;50.90
80540;DHT22;69869;48.036;15.780;2023-05-10T08:38:18;17.80;50.90
80540;DHT22;69869;48.036;15.780;2023-05-10T08:40:44;17.80;50.90
80540;DHT22;69869;48.036;15.780;2023-05-10T08:43:12;17.80;50.90
80540;DHT22;69869;48.036;15.780;2023-05-10T08:45:42;17.80;50.90
80540;DHT22;69869;48.036;15.780;2023-05-10T08:48:09;17.80;51.00
80540;DHT22;69869;48.036;15.780;2023-05-10T08:50:44;17.80;51.00
80540;DHT22;69869;48.036;15.780;2023-05-10T08:53:13;17.80;51.00
80540;DHT22;69869;48.036;15.780;2023-05-10T08:55:40;17.80;51.00
80540;DHT22;69869;48.036;15.780;2023-05-10T08:58:08;17.90;51.10
80540;DHT22;69869;48.036;15.780;2023-05-10T09:00:34;17.80;51.10
80540;DHT22;69869;48.036;15.780;2023-05-10T09:03:01;17.80;51.10
80540;DHT22;69869;48.036;15.780;2023-05-10T09:05:27;17.80;51.10
80540;DHT22;69869;48.036;15.780;2023-05-10T09:07:53;17.80;51.10
80540;DHT22;69869;48.036;15.780;2023-05-10T09:10:19;17.80;51.10
80540;DHT22;69869;48.036;15.780;2023-05-10T09:12:45;17.80;51.10
80540;DHT22;69869;48.036;15.780;2023-05-10T09:15:12;17.80;51.10
80540;DHT22;69869;48.036;15.780;2023-05-10T09:17:40;17.80;51.20
80540;DHT22;69869;48.036;15.780;2023-05-10T09:20:06;17.80;51.20
80540;DHT22;69869;48.036;15.780;2023-05-10T09:22:33;17.80;51.20
80540;DHT22;69869;48.036;15.780;2023-05-10T09:25:13;17.90;51.30
80540;DHT22;69869;48.036;15.780;2023-05-10T09:27:40;17.80;51.20
80540;DHT22;69869;48.036;15.780;2023-05-10T09:30:07;17.90;51.30
80540;DHT22;69869;48.036;15.780;2023-05-10T09:32:40;17.80;51.20
80540;DHT22;69869;48.036;15.780;2023-05-10T09:35:11;17.80;51.30
80540;DHT22;69869;48.036;15.780;2023-05-10T09:37:39;17.90;51.40
80540;DHT22;69869;48.036;15.780;2023-05-10T09:40:08;17.80;51.30
80540;DHT22;69869;48.036;15.780;2023-05-10T09:42:36;17.90;51.40
80540;DHT22;69869;48.036;15.780;2023-05-10T09:45:03;17.80;51.30
80540;DHT22;69869;48.036;15.780;2023-05-10T09:47:32;17.80;51.30
80540;DHT22;69869;48.036;15.780;2023-05-10T09:49:58;17.80;51.30
80540;DHT22;69869;48.036;15.780;2023-05-10T09:52:29;17.80;51.30
80540;DHT22;69869;48.036;15.780;2023-05-10T09:54:54;17.80;51.30
80540;DHT22;69869;48.036;15.780;2023-05-10T09:57:21;17.80;51.30
80540;DHT22;69869;48.036;15.780;2023-05-10T09:59:48;17.90;51.40
80540;DHT22;69869;48.036;15.780;2023-05-10T10:02:13;17.90;51.50
80540;DHT22;69869;48.036;15.780;2023-05-10T10:04:40;17.90;51.40
80540;DHT22;69869;48.036;15.780;2023-05-10T10:07:06;17.90;51.50
80540;DHT22;69869;48.036;15.780;2023-05-10T10:09:33;17.90;51.50
80540;DHT22;69869;48.036;15.780;2023-05-10T10:12:02;17.80;51.40
80540;DHT22;69869;48.036;15.780;2023-05-10T10:14:29;17.90;51.50
80540;DHT22;69869;48.036;15.780;2023-05-10T10:16:55;17.90;51.50
80540;DHT22;69869;48.036;15.780;2023-05-10T10:19:21;17.80;51.40
80540;DHT22;69869;48.036;15.780;2023-05-10T10:21:50;17.90;51.50
80540;DHT22;69869;48.036;15.780;2023-05-10T10:24:16;17.90;51.50
80540;DHT22;69869;48.036;15.780;2023-05-10T10:26:42;17.90;51.50
80540;DHT22;69869;48.036;15.780;2023-05-10T10:29:36;17.90;51.50
80540;DHT22;69869;48.036;15.780;2023-05-10T10:32:11;17.90;51.50
80540;DHT22;69869;48.036;15.780;2023-05-10T10:34:42;17.90;51.50
80540;DHT22;69869;48.036;15.780;2023-05-10T10:37:08;17.80;51.40
80540;DHT22;69869;48.036;15.780;2023-05-10T10:39:34;17.90;51.50
80540;DHT22;69869;48.036;15.780;2023-05-10T10:42:02;17.90;51.50
80540;DHT22;69869;48.036;15.780;2023-05-10T10:49:24;17.90;51.60
80540;DHT22;69869;48.036;15.780;2023-05-10T10:52:12;17.90;52.20
80540;DHT22;69869;48.036;15.780;2023-05-10T10:54:38;17.90;51.60
80540;DHT22;69869;48.036;15.780;2023-05-10T11:05:37;17.90;51.60
80540;DHT22;69869;48.036;15.780;2023-05-10T11:08:32;17.90;51.70
80540;DHT22;69869;48.036;15.780;2023-05-10T11:13:32;17.90;51.70
80540;DHT22;69869;48.036;15.780;2023-05-10T11:15:59;17.90;51.70
80540;DHT22;69869;48.036;15.780;2023-05-10T11:18:36;17.90;51.70
80540;DHT22;69869;48.036;15.780;2023-05-10T11:21:02;17.90;51.70
80540;DHT22;69869;48.036;15.780;2023-05-10T11:26:13;17.90;51.70
80540;DHT22;69869;48.036;15.780;2023-05-10T11:28:46;17.90;51.70
80540;DHT22;69869;48.036;15.780;2023-05-10T11:31:16;17.90;51.70
80540;DHT22;69869;48.036;15.780;2023-05-10T11:33:48;17.90;51.70
80540;DHT22;69869;48.036;15.780;2023-05-10T11:36:14;17.90;51.70
80540;DHT22;69869;48.036;15.780;2023-05-10T11:38:40;17.90;51.70
80540;DHT22;69869;48.036;15.780;2023-05-10T11:41:08;17.90;51.70
80540;DHT22;69869;48.036;15.780;2023-05-10T11:43:35;17.90;51.70
80540;DHT22;69869;48.036;15.780;2023-05-10T11:46:07;17.90;51.70
80540;DHT22;69869;48.036;15.780;2023-05-10T11:48:33;17.90;51.80
80540;DHT22;69869;48.036;15.780;2023-05-10T11:51:01;17.90;51.70
80540;DHT22;69869;48.036;15.780;2023-05-10T11:53:27;17.90;51.70
80540;DHT22;69869;48.036;15.780;2023-05-10T11:55:53;17.90;51.80
80540;DHT22;69869;48.036;15.780;2023-05-10T11:58:19;17.90;51.80
80540;DHT22;69869;48.036;15.780;2023-05-10T12:00:46;17.90;51.80
80540;DHT22;69869;48.036;15.780;2023-05-10T12:03:13;17.90;51.80
80540;DHT22;69869;48.036;15.780;2023-05-10T12:05:39;17.90;51.80
80540;DHT22;69869;48.036;15.780;2023-05-10T12:08:21;17.90;51.80
80540;DHT22;69869;48.036;15.780;2023-05-10T12:10:47;17.90;51.80
80540;DHT22;69869;48.036;15.780;2023-05-10T12:13:13;17.90;51.80
80540;DHT22;69869;48.036;15.780;2023-05-10T12:15:39;17.90;51.90
80540;DHT22;69869;48.036;15.780;2023-05-10T12:18:05;17.90;51.80
80540;DHT22;69869;48.036;15.780;2023-05-10T12:20:31;17.90;51.80
80540;DHT22;69869;48.036;15.780;2023-05-10T12:22:58;17.90;51.80
80540;DHT22;69869;48.036;15.780;2023-05-10T12:25:30;17.90;51.90
80540;DHT22;69869;48.036;15.780;2023-05-10T12:27:57;17.90;51.90
80540;DHT22;69869;48.036;15.780;2023-05-10T12:30:28;17.90;51.90
80540;DHT22;69869;48.036;15.780;2023-05-10T12:32:59;17.90;51.90
80540;DHT22;69869;48.036;15.780;2023-05-10T12:35:25;17.90;51.90
80540;DHT22;69869;48.036;15.780;2023-05-10T12:37:51;17.90;51.90
80540;DHT22;69869;48.036;15.780;2023-05-10T12:40:16;17.90;51.90
80540;DHT22;69869;48.036;15.780;2023-05-10T12:42:42;17.90;51.90
80540;DHT22;69869;48.036;15.780;2023-05-10T12:45:10;17.90;51.90
80540;DHT22;69869;48.036;15.780;2023-05-10T12:47:38;17.90;51.90
80540;DHT22;69869;48.036;15.780;2023-05-10T12:50:04;17.90;51.90
80540;DHT22;69869;48.036;15.780;2023-05-10T12:52:31;17.90;51.90
80540;DHT22;69869;48.036;15.780;2023-05-10T12:54:58;17.90;51.90
80540;DHT22;69869;48.036;15.780;2023-05-10T12:57:24;17.90;51.90
80540;DHT22;69869;48.036;15.780;2023-05-10T12:59:50;17.90;51.90
80540;DHT22;69869;48.036;15.780;2023-05-10T13:02:16;17.90;52.00
80540;DHT22;69869;48.036;15.780;2023-05-10T13:04:44;17.90;51.90
80540;DHT22;69869;48.036;15.780;2023-05-10T13:07:10;17.90;52.00
80540;DHT22;69869;48.036;15.780;2023-05-10T13:09:35;17.90;52.00
80540;DHT22;69869;48.036;15.780;2023-05-10T13:12:01;17.90;52.00
80540;DHT22;69869;48.036;15.780;2023-05-10T13:14:29;17.90;52.00
80540;DHT22;69869;48.036;15.780;2023-05-10T13:16:55;17.90;52.00
80540;DHT22;69869;48.036;15.780;2023-05-10T13:19:21;17.90;52.00
80540;DHT22;69869;48.036;15.780;2023-05-10T13:21:46;17.90;52.00
80540;DHT22;69869;48.036;15.780;2023-05-10T13:24:12;17.90;52.00
80540;DHT22;69869;48.036;15.780;2023-05-10T13:26:42;17.90;52.00
80540;DHT22;69869;48.036;15.780;2023-05-10T13:29:08;18.00;52.10
80540;DHT22;69869;48.036;15.780;2023-05-10T13:31:34;18.10;52.40
80540;DHT22;69869;48.036;15.780;2023-05-10T13:34:00;18.10;52.50
80540;DHT22;69869;48.036;15.780;2023-05-10T13:36:26;18.30;53.50
80540;DHT22;69869;48.036;15.780;2023-05-10T13:38:51;18.30;52.80
80540;DHT22;69869;48.036;15.780;2023-05-10T13:41:17;18.20;52.60
80540;DHT22;69869;48.036;15.780;2023-05-10T13:43:43;18.20;52.40
80540;DHT22;69869;48.036;15.780;2023-05-10T13:46:09;18.20;52.40
80540;DHT22;69869;48.036;15.780;2023-05-10T13:48:34;18.20;52.20
80540;DHT22;69869;48.036;15.780;2023-05-10T13:51:02;18.20;52.60
80540;DHT22;69869;48.036;15.780;2023-05-10T13:53:27;18.20;52.50
80540;DHT22;69869;48.036;15.780;2023-05-10T13:55:53;18.10;52.50
80540;DHT22;69869;48.036;15.780;2023-05-10T13:58:19;18.10;52.70
80540;DHT22;69869;48.036;15.780;2023-05-10T14:00:44;18.10;52.90
80540;DHT22;69869;48.036;15.780;2023-05-10T14:03:10;18.10;52.90
80540;DHT22;69869;48.036;15.780;2023-05-10T14:05:36;18.10;52.90
80540;DHT22;69869;48.036;15.780;2023-05-10T14:08:02;18.10;53.10
80540;DHT22;69869;48.036;15.780;2023-05-10T14:10:28;18.10;53.00
80540;DHT22;69869;48.036;15.780;2023-05-10T14:12:53;18.10;53.00
80540;DHT22;69869;48.036;15.780;2023-05-10T14:15:19;18.10;53.00
80540;DHT22;69869;48.036;15.780;2023-05-10T14:17:45;18.10;53.00
80540;DHT22;69869;48.036;15.780;2023-05-10T14:20:11;18.10;53.00
80540;DHT22;69869;48.036;15.780;2023-05-10T14:22:36;18.10;53.00
80540;DHT22;69869;48.036;15.780;2023-05-10T14:25:02;18.10;53.00
80540;DHT22;69869;48.036;15.780;2023-05-10T14:27:28;18.10;53.00
80540;DHT22;69869;48.036;15.780;2023-05-10T14:29:53;18.10;53.00
80540;DHT22;69869;48.036;15.780;2023-05-10T14:32:19;18.00;52.90
80540;DHT22;69869;48.036;15.780;2023-05-10T14:34:45;18.00;52.80
80540;DHT22;69869;48.036;15.780;2023-05-10T14:37:11;18.10;52.70
80540;DHT22;69869;48.036;15.780;2023-05-10T14:39:37;18.10;52.40
80540;DHT22;69869;48.036;15.780;2023-05-10T14:42:03;18.10;52.20
80540;DHT22;69869;48.036;15.780;2023-05-10T14:44:29;18.20;52.40
80540;DHT22;69869;48.036;15.780;2023-05-10T14:46:54;18.20;52.40
80540;DHT22;69869;48.036;15.780;2023-05-10T14:49:22;18.20;52.30
80540;DHT22;69869;48.036;15.780;2023-05-10T14:51:48;18.20;52.30
80540;DHT22;69869;48.036;15.780;2023-05-10T14:54:13;18.20;52.30
80540;DHT22;69869;48.036;15.780;2023-05-10T14:56:39;18.20;52.40
80540;DHT22;69869;48.036;15.780;2023-05-10T14:59:07;18.20;52.30
80540;DHT22;69869;48.036;15.780;2023-05-10T15:01:32;18.20;52.30
80540;DHT22;69869;48.036;15.780;2023-05-10T15:04:00;18.20;52.30
80540;DHT22;69869;48.036;15.780;2023-05-10T15:06:35;18.20;52.30
80540;DHT22;69869;48.036;15.780;2023-05-10T15:09:02;18.20;52.40
80540;DHT22;69869;48.036;15.780;2023-05-10T15:11:29;18.20;52.40
80540;DHT22;69869;48.036;15.780;2023-05-10T15:13:54;18.20;52.30
80540;DHT22;69869;48.036;15.780;2023-05-10T15:16:20;18.20;52.30
80540;DHT22;69869;48.036;15.780;2023-05-10T15:18:46;18.20;52.30
80540;DHT22;69869;48.036;15.780;2023-05-10T15:21:12;18.20;52.30
80540;DHT22;69869;48.036;15.780;2023-05-10T15:23:37;18.20;52.30
80540;DHT22;69869;48.036;15.780;2023-05-10T15:26:03;18.20;52.40
80540;DHT22;69869;48.036;15.780;2023-05-10T15:28:29;18.20;52.50
80540;DHT22;69869;48.036;15.780;2023-05-10T15:30:55;18.20;52.30
80540;DHT22;69869;48.036;15.780;2023-05-10T15:33:21;18.20;52.30
80540;DHT22;69869;48.036;15.780;2023-05-10T15:35:47;18.20;52.30
80540;DHT22;69869;48.036;15.780;2023-05-10T15:38:13;18.20;52.30
80540;DHT22;69869;48.036;15.780;2023-05-10T15:40:39;18.20;52.30
80540;DHT22;69869;48.036;15.780;2023-05-10T15:43:04;18.20;52.40
80540;DHT22;69869;48.036;15.780;2023-05-10T15:45:33;18.20;52.30